sensor_id;sensor_type;location;lat;lon;timestamp;pressure;altitude;pressure_sealevel;temperature;humidity
1472;BME280;963;42.644;23.336;2023-02-19T00:02:22;94434.22;;;9.97;49.14
1472;BME280;963;42.644;23.336;2023-02-19T00:04:47;94436.56;;;9.83;49.44
1472;BME280;963;42.644;23.336;2023-02-19T00:07:12;94438.78;;;10.00;49.49
1472;BME280;963;42.644;23.336;2023-02-19T00:09:38;94424.91;;;9.64;49.68
1472;BME280;963;42.644;23.336;2023-02-19T00:12:03;94425.91;;;9.76;49.80
1472;BME280;963;42.644;23.336;2023-02-19T00:14:29;94409.91;;;9.65;49.95
1472;BME280;963;42.644;23.336;2023-02-19T00:16:54;94419.66;;;9.64;50.13
1472;BME280;963;42.644;23.336;2023-02-19T00:19:20;94431.03;;;9.88;49.57
1472;BME280;963;42.644;23.336;2023-02-19T00:21:49;94420.94;;;9.90;50.04
1472;BME280;963;42.644;23.336;2023-02-19T00:24:14;94432.69;;;9.77;49.82
1472;BME280;963;42.644;23.336;2023-02-19T00:26:41;94413.06;;;9.70;49.82
1472;BME280;963;42.644;23.336;2023-02-19T00:29:11;94415.91;;;9.65;50.02
1472;BME280;963;42.644;23.336;2023-02-19T00:31:37;94419.75;;;9.68;50.24
1472;BME280;963;42.644;23.336;2023-02-19T00:34:04;94407.13;;;9.58;50.65
1472;BME280;963;42.644;23.336;2023-02-19T00:36:31;94405.28;;;9.58;50.51
1472;BME280;963;42.644;23.336;2023-02-19T00:38:57;94417.03;;;9.64;50.57
1472;BME280;963;42.644;23.336;2023-02-19T00:41:23;94403.00;;;9.06;52.11
1472;BME280;963;42.644;23.336;2023-02-19T00:43:53;94420.66;;;9.40;51.11
1472;BME280;963;42.644;23.336;2023-02-19T00:46:24;94416.03;;;9.53;51.00
1472;BME280;963;42.644;23.336;2023-02-19T00:48:51;94402.75;;;9.46;50.81
1472;BME280;963;42.644;23.336;2023-02-19T00:51:17;94410.84;;;9.37;51.14
1472;BME280;963;42.644;23.336;2023-02-19T00:53:43;94404.41;;;9.35;51.19
1472;BME280;963;42.644;23.336;2023-02-19T00:56:09;94391.56;;;9.14;52.05
1472;BME280;963;42.644;23.336;2023-02-19T00:58:35;94391.16;;;8.96;52.18
1472;BME280;963;42.644;23.336;2023-02-19T01:01:01;94396.03;;;8.66;53.31
1472;BME280;963;42.644;23.336;2023-02-19T01:03:27;94406.75;;;7.90;54.96
1472;BME280;963;42.644;23.336;2023-02-19T01:05:52;94383.88;;;8.58;53.63
1472;BME280;963;42.644;23.336;2023-02-19T01:08:19;94396.81;;;8.67;52.75
1472;BME280;963;42.644;23.336;2023-02-19T01:10:45;94365.94;;;8.76;51.88
1472;BME280;963;42.644;23.336;2023-02-19T01:13:11;94381.34;;;8.93;51.47
1472;BME280;963;42.644;23.336;2023-02-19T01:15:37;94375.91;;;8.86;51.88
1472;BME280;963;42.644;23.336;2023-02-19T01:18:02;94400.88;;;8.96;51.85
1472;BME280;963;42.644;23.336;2023-02-19T01:20:28;94380.41;;;8.70;52.03
1472;BME280;963;42.644;23.336;2023-02-19T01:22:54;94380.22;;;8.63;52.66
1472;BME280;963;42.644;23.336;2023-02-19T01:25:19;94364.31;;;8.71;52.46
1472;BME280;963;42.644;23.336;2023-02-19T01:27:45;94373.72;;;8.57;52.69
1472;BME280;963;42.644;23.336;2023-02-19T01:30:10;94399.94;;;8.57;52.65
1472;BME280;963;42.644;23.336;2023-02-19T01:32:36;94394.34;;;8.74;52.81
1472;BME280;963;42.644;23.336;2023-02-19T01:35:02;94411.75;;;8.51;53.09
1472;BME280;963;42.644;23.336;2023-02-19T01:37:27;94412.06;;;8.33;53.38
1472;BME280;963;42.644;23.336;2023-02-19T01:39:53;94371.56;;;8.46;52.50
1472;BME280;963;42.644;23.336;2023-02-19T01:42:18;94417.78;;;8.67;52.33
1472;BME280;963;42.644;23.336;2023-02-19T01:47:10;94426.31;;;8.64;52.92
1472;BME280;963;42.644;23.336;2023-02-19T01:49:43;94434.53;;;8.62;52.63
1472;BME280;963;42.644;23.336;2023-02-19T01:55:10;94451.28;;;8.89;52.44
1472;BME280;963;42.644;23.336;2023-02-19T01:57:40;94452.63;;;8.83;51.82
1472;BME280;963;42.644;23.336;2023-02-19T02:00:10;94460.91;;;8.69;52.41
1472;BME280;963;42.644;23.336;2023-02-19T02:02:38;94425.66;;;8.67;52.04
1472;BME280;963;42.644;23.336;2023-02-19T02:05:08;94441.66;;;8.50;52.73
1472;BME280;963;42.644;23.336;2023-02-19T02:07:35;94424.28;;;8.57;52.45
1472;BME280;963;42.644;23.336;2023-02-19T02:10:19;94419.81;;;8.18;53.51
1472;BME280;963;42.644;23.336;2023-02-19T02:12:48;94419.19;;;8.49;52.94
1472;BME280;963;42.644;23.336;2023-02-19T02:15:15;94410.47;;;8.44;52.93
1472;BME280;963;42.644;23.336;2023-02-19T02:26:17;94418.75;;;7.91;54.04
1472;BME280;963;42.644;23.336;2023-02-19T02:31:46;94420.19;;;7.76;54.65
1472;BME280;963;42.644;23.336;2023-02-19T02:34:21;94423.88;;;7.87;54.31
1472;BME280;963;42.644;23.336;2023-02-19T02:36:52;94422.22;;;7.95;54.74
1472;BME280;963;42.644;23.336;2023-02-19T02:39:20;94427.53;;;7.98;54.29
1472;BME280;963;42.644;23.336;2023-02-19T02:41:55;94414.59;;;8.18;53.83
1472;BME280;963;42.644;23.336;2023-02-19T02:44:40;94448.97;;;8.16;53.51
1472;BME280;963;42.644;23.336;2023-02-19T02:47:06;94449.69;;;8.41;53.37
1472;BME280;963;42.644;23.336;2023-02-19T02:49:55;94406.78;;;8.05;53.76
1472;BME280;963;42.644;23.336;2023-02-19T02:52:32;94441.56;;;8.18;54.10
1472;BME280;963;42.644;23.336;2023-02-19T02:55:19;94394.16;;;7.95;54.16
1472;BME280;963;42.644;23.336;2023-02-19T02:57:45;94439.06;;;8.22;53.87
1472;BME280;963;42.644;23.336;2023-02-19T03:00:11;94419.50;;;8.47;53.32
1472;BME280;963;42.644;23.336;2023-02-19T03:02:38;94418.94;;;8.54;52.93
1472;BME280;963;42.644;23.336;2023-02-19T03:10:42;94417.78;;;8.67;52.98
1472;BME280;963;42.644;23.336;2023-02-19T03:13:19;94427.16;;;8.68;52.98
1472;BME280;963;42.644;23.336;2023-02-19T03:16:08;94439.84;;;8.66;53.22
1472;BME280;963;42.644;23.336;2023-02-19T03:18:55;94423.75;;;8.52;53.11
1472;BME280;963;42.644;23.336;2023-02-19T03:21:42;94429.88;;;8.15;54.46
1472;BME280;963;42.644;23.336;2023-02-19T03:24:11;94461.19;;;8.36;53.67
1472;BME280;963;42.644;23.336;2023-02-19T03:26:58;94455.28;;;8.27;53.94
1472;BME280;963;42.644;23.336;2023-02-19T03:29:29;94462.28;;;8.35;53.53
1472;BME280;963;42.644;23.336;2023-02-19T03:31:58;94475.56;;;8.42;53.92
1472;BME280;963;42.644;23.336;2023-02-19T03:34:33;94449.66;;;8.13;53.93
1472;BME280;963;42.644;23.336;2023-02-19T03:37:25;94469.22;;;8.03;55.05
1472;BME280;963;42.644;23.336;2023-02-19T03:39:52;94466.44;;;8.24;53.86
1472;BME280;963;42.644;23.336;2023-02-19T03:45:31;94489.16;;;8.20;54.40
1472;BME280;963;42.644;23.336;2023-02-19T03:54:16;94478.88;;;8.27;54.32
1472;BME280;963;42.644;23.336;2023-02-19T03:56:51;94481.84;;;8.26;54.51
1472;BME280;963;42.644;23.336;2023-02-19T04:02:08;94451.34;;;7.93;55.00
1472;BME280;963;42.644;23.336;2023-02-19T04:04:50;94486.56;;;8.20;54.33
1472;BME280;963;42.644;23.336;2023-02-19T04:07:19;94493.31;;;8.21;54.65
1472;BME280;963;42.644;23.336;2023-02-19T04:09:47;94500.06;;;8.22;54.17
1472;BME280;963;42.644;23.336;2023-02-19T04:12:15;94500.41;;;8.21;54.52
1472;BME280;963;42.644;23.336;2023-02-19T04:14:56;94496.09;;;7.88;55.01
1472;BME280;963;42.644;23.336;2023-02-19T04:17:47;94493.06;;;7.62;56.62
1472;BME280;963;42.644;23.336;2023-02-19T04:20:17;94484.63;;;7.93;55.81
1472;BME280;963;42.644;23.336;2023-02-19T04:22:44;94507.34;;;7.40;56.92
1472;BME280;963;42.644;23.336;2023-02-19T04:25:10;94515.66;;;7.66;56.61
1472;BME280;963;42.644;23.336;2023-02-19T04:27:38;94520.09;;;7.90;55.48
1472;BME280;963;42.644;23.336;2023-02-19T04:30:05;94523.63;;;7.82;55.88
1472;BME280;963;42.644;23.336;2023-02-19T04:32:31;94508.09;;;7.89;55.35
1472;BME280;963;42.644;23.336;2023-02-19T04:34:57;94502.94;;;8.05;55.07
1472;BME280;963;42.644;23.336;2023-02-19T04:37:22;94500.13;;;7.98;55.15
1472;BME280;963;42.644;23.336;2023-02-19T04:39:47;94554.25;;;8.06;54.95
1472;BME280;963;42.644;23.336;2023-02-19T04:42:13;94507.75;;;8.03;54.95
1472;BME280;963;42.644;23.336;2023-02-19T04:44:38;94505.59;;;7.93;55.51
1472;BME280;963;42.644;23.336;2023-02-19T04:47:04;94502.72;;;8.10;54.50
1472;BME280;963;42.644;23.336;2023-02-19T04:49:29;94506.75;;;8.20;54.97
1472;BME280;963;42.644;23.336;2023-02-19T04:51:54;94504.31;;;8.27;54.39
1472;BME280;963;42.644;23.336;2023-02-19T04:54:20;94494.94;;;8.26;54.15
1472;BME280;963;42.644;23.336;2023-02-19T04:56:45;94504.41;;;8.42;53.50
1472;BME280;963;42.644;23.336;2023-02-19T04:59:12;94513.53;;;8.49;53.61
1472;BME280;963;42.644;23.336;2023-02-19T05:01:37;94500.88;;;8.51;53.23
1472;BME280;963;42.644;23.336;2023-02-19T05:04:03;94507.63;;;8.52;53.06
1472;BME280;963;42.644;23.336;2023-02-19T05:06:29;94522.31;;;8.40;53.39
1472;BME280;963;42.644;23.336;2023-02-19T05:08:55;94522.56;;;8.23;53.60
1472;BME280;963;42.644;23.336;2023-02-19T05:11:20;94518.19;;;8.27;53.65
1472;BME280;963;42.644;23.336;2023-02-19T05:13:48;94525.16;;;8.35;53.90
1472;BME280;963;42.644;23.336;2023-02-19T05:16:14;94502.91;;;8.17;53.80
1472;BME280;963;42.644;23.336;2023-02-19T05:18:41;94529.66;;;8.35;54.08
1472;BME280;963;42.644;23.336;2023-02-19T05:21:07;94524.84;;;8.37;53.56
1472;BME280;963;42.644;23.336;2023-02-19T05:23:33;94524.38;;;7.82;54.74
1472;BME280;963;42.644;23.336;2023-02-19T05:25:58;94533.75;;;7.96;55.08
1472;BME280;963;42.644;23.336;2023-02-19T05:28:28;94548.56;;;8.04;54.65
1472;BME280;963;42.644;23.336;2023-02-19T05:30:54;94517.34;;;8.11;54.90
1472;BME280;963;42.644;23.336;2023-02-19T05:33:22;94517.75;;;8.13;54.61
1472;BME280;963;42.644;23.336;2023-02-19T05:35:51;94522.13;;;8.33;54.31
1472;BME280;963;42.644;23.336;2023-02-19T05:38:17;94547.47;;;8.69;53.54
1472;BME280;963;42.644;23.336;2023-02-19T05:40:43;94549.09;;;8.90;53.22
1472;BME280;963;42.644;23.336;2023-02-19T05:43:10;94551.59;;;8.98;52.87
1472;BME280;963;42.644;23.336;2023-02-19T05:45:36;94537.56;;;9.06;52.65
1472;BME280;963;42.644;23.336;2023-02-19T05:48:02;94518.47;;;8.78;52.96
1472;BME280;963;42.644;23.336;2023-02-19T05:50:28;94531.38;;;8.99;53.16
1472;BME280;963;42.644;23.336;2023-02-19T05:52:54;94539.59;;;8.97;52.75
1472;BME280;963;42.644;23.336;2023-02-19T05:55:19;94533.59;;;9.13;53.16
1472;BME280;963;42.644;23.336;2023-02-19T05:57:46;94520.56;;;9.16;52.09
1472;BME280;963;42.644;23.336;2023-02-19T06:00:17;94550.09;;;9.29;52.34
1472;BME280;963;42.644;23.336;2023-02-19T06:02:43;94549.09;;;9.49;51.94
1472;BME280;963;42.644;23.336;2023-02-19T06:05:08;94559.63;;;9.49;52.13
1472;BME280;963;42.644;23.336;2023-02-19T06:07:34;94558.75;;;9.77;51.24
1472;BME280;963;42.644;23.336;2023-02-19T06:10:00;94567.22;;;9.86;51.01
1472;BME280;963;42.644;23.336;2023-02-19T06:12:26;94564.34;;;9.91;50.82
1472;BME280;963;42.644;23.336;2023-02-19T06:14:51;94558.81;;;10.12;50.73
1472;BME280;963;42.644;23.336;2023-02-19T06:17:17;94569.31;;;10.27;50.77
1472;BME280;963;42.644;23.336;2023-02-19T06:19:42;94568.88;;;10.25;49.94
1472;BME280;963;42.644;23.336;2023-02-19T06:22:08;94579.53;;;10.32;49.98
1472;BME280;963;42.644;23.336;2023-02-19T06:24:33;94560.72;;;10.30;50.13
1472;BME280;963;42.644;23.336;2023-02-19T06:27:04;94570.53;;;10.49;49.51
1472;BME280;963;42.644;23.336;2023-02-19T06:29:30;94577.03;;;10.55;49.49
1472;BME280;963;42.644;23.336;2023-02-19T06:31:57;94564.44;;;10.64;49.17
1472;BME280;963;42.644;23.336;2023-02-19T06:34:22;94566.03;;;10.69;49.41
1472;BME280;963;42.644;23.336;2023-02-19T06:36:48;94572.81;;;10.70;49.37
1472;BME280;963;42.644;23.336;2023-02-19T06:39:14;94570.59;;;10.72;49.84
1472;BME280;963;42.644;23.336;2023-02-19T06:41:39;94558.69;;;10.78;49.49
1472;BME280;963;42.644;23.336;2023-02-19T06:44:04;94568.03;;;10.95;49.68
1472;BME280;963;42.644;23.336;2023-02-19T06:46:30;94557.56;;;10.99;49.75
1472;BME280;963;42.644;23.336;2023-02-19T06:48:55;94560.69;;;11.04;49.45
1472;BME280;963;42.644;23.336;2023-02-19T06:51:21;94561.56;;;11.12;49.06
1472;BME280;963;42.644;23.336;2023-02-19T06:53:48;94569.25;;;11.20;48.97
1472;BME280;963;42.644;23.336;2023-02-19T06:56:25;94560.19;;;11.18;49.06
1472;BME280;963;42.644;23.336;2023-02-19T06:58:52;94571.97;;;11.24;48.90
1472;BME280;963;42.644;23.336;2023-02-19T07:01:18;94554.22;;;11.21;49.02
1472;BME280;963;42.644;23.336;2023-02-19T07:03:44;94570.44;;;11.46;48.49
1472;BME280;963;42.644;23.336;2023-02-19T07:06:09;94579.25;;;11.53;48.59
1472;BME280;963;42.644;23.336;2023-02-19T07:08:34;94569.72;;;11.49;48.10
1472;BME280;963;42.644;23.336;2023-02-19T07:11:00;94583.75;;;11.53;48.25
1472;BME280;963;42.644;23.336;2023-02-19T07:13:26;94590.91;;;11.52;48.06
1472;BME280;963;42.644;23.336;2023-02-19T07:15:58;94567.28;;;11.59;47.95
1472;BME280;963;42.644;23.336;2023-02-19T07:18:24;94579.75;;;11.63;48.16
1472;BME280;963;42.644;23.336;2023-02-19T07:20:49;94559.44;;;11.63;47.71
1472;BME280;963;42.644;23.336;2023-02-19T07:23:14;94570.69;;;11.60;47.64
1472;BME280;963;42.644;23.336;2023-02-19T07:25:40;94568.22;;;11.71;47.41
1472;BME280;963;42.644;23.336;2023-02-19T07:28:06;94564.47;;;11.72;46.95
1472;BME280;963;42.644;23.336;2023-02-19T07:30:31;94560.16;;;11.83;47.06
1472;BME280;963;42.644;23.336;2023-02-19T07:32:57;94543.84;;;12.00;46.40
1472;BME280;963;42.644;23.336;2023-02-19T07:35:22;94548.78;;;12.02;46.51
1472;BME280;963;42.644;23.336;2023-02-19T07:37:47;94548.25;;;12.19;45.87
1472;BME280;963;42.644;23.336;2023-02-19T07:40:13;94555.72;;;12.13;46.37
1472;BME280;963;42.644;23.336;2023-02-19T07:42:38;94543.94;;;12.34;46.01
1472;BME280;963;42.644;23.336;2023-02-19T07:45:04;94550.56;;;12.24;45.90
1472;BME280;963;42.644;23.336;2023-02-19T07:47:30;94551.53;;;12.39;46.00
1472;BME280;963;42.644;23.336;2023-02-19T07:49:55;94545.91;;;12.40;46.20
1472;BME280;963;42.644;23.336;2023-02-19T07:52:21;94560.75;;;12.52;45.92
1472;BME280;963;42.644;23.336;2023-02-19T07:54:46;94553.53;;;12.49;45.72
1472;BME280;963;42.644;23.336;2023-02-19T07:57:12;94539.50;;;12.71;45.42
1472;BME280;963;42.644;23.336;2023-02-19T07:59:38;94532.84;;;12.84;44.85
1472;BME280;963;42.644;23.336;2023-02-19T08:02:07;94537.63;;;12.72;45.33
1472;BME280;963;42.644;23.336;2023-02-19T08:04:52;94539.19;;;12.76;45.18
1472;BME280;963;42.644;23.336;2023-02-19T08:07:17;94539.97;;;12.80;45.31
1472;BME280;963;42.644;23.336;2023-02-19T08:09:43;94548.91;;;13.02;45.40
1472;BME280;963;42.644;23.336;2023-02-19T08:12:10;94531.63;;;13.08;44.97
1472;BME280;963;42.644;23.336;2023-02-19T08:14:54;94525.97;;;13.10;44.77
1472;BME280;963;42.644;23.336;2023-02-19T08:17:19;94535.22;;;13.30;44.51
1472;BME280;963;42.644;23.336;2023-02-19T08:19:44;94535.09;;;13.16;44.57
1472;BME280;963;42.644;23.336;2023-02-19T08:22:10;94527.78;;;13.39;44.26
1472;BME280;963;42.644;23.336;2023-02-19T08:24:35;94530.09;;;13.44;44.12
1472;BME280;963;42.644;23.336;2023-02-19T08:27:01;94535.88;;;13.61;43.76
1472;BME280;963;42.644;23.336;2023-02-19T08:29:27;94523.47;;;13.68;43.53
1472;BME280;963;42.644;23.336;2023-02-19T08:31:52;94523.63;;;13.86;43.48
1472;BME280;963;42.644;23.336;2023-02-19T08:34:18;94527.06;;;13.94;43.33
1472;BME280;963;42.644;23.336;2023-02-19T08:36:43;94536.16;;;13.96;43.19
1472;BME280;963;42.644;23.336;2023-02-19T08:39:08;94542.28;;;14.11;43.08
1472;BME280;963;42.644;23.336;2023-02-19T08:41:34;94516.31;;;14.24;42.95
1472;BME280;963;42.644;23.336;2023-02-19T08:43:59;94508.38;;;14.27;42.85
1472;BME280;963;42.644;23.336;2023-02-19T08:46:25;94524.84;;;14.65;42.49
1472;BME280;963;42.644;23.336;2023-02-19T08:48:50;94492.69;;;14.59;42.31
1472;BME280;963;42.644;23.336;2023-02-19T08:51:16;94505.97;;;14.81;42.49
1472;BME280;963;42.644;23.336;2023-02-19T08:53:41;94493.16;;;14.90;41.56
1472;BME280;963;42.644;23.336;2023-02-19T08:56:12;94498.09;;;15.06;41.34
1472;BME280;963;42.644;23.336;2023-02-19T08:58:38;94485.63;;;15.20;41.41
1472;BME280;963;42.644;23.336;2023-02-19T09:01:08;94490.19;;;15.30;40.94
1472;BME280;963;42.644;23.336;2023-02-19T09:03:34;94494.38;;;15.46;41.24
1472;BME280;963;42.644;23.336;2023-02-19T09:05:59;94482.63;;;15.40;41.32
1472;BME280;963;42.644;23.336;2023-02-19T09:08:25;94469.75;;;15.49;41.85
1472;BME280;963;42.644;23.336;2023-02-19T09:11:00;94477.38;;;15.65;41.39
1472;BME280;963;42.644;23.336;2023-02-19T09:13:27;94460.28;;;15.76;41.04
1472;BME280;963;42.644;23.336;2023-02-19T09:15:53;94475.84;;;15.67;40.93
1472;BME280;963;42.644;23.336;2023-02-19T09:18:18;94474.69;;;15.75;41.31
1472;BME280;963;42.644;23.336;2023-02-19T09:20:44;94448.91;;;15.90;40.76
1472;BME280;963;42.644;23.336;2023-02-19T09:23:09;94456.84;;;15.93;40.88
1472;BME280;963;42.644;23.336;2023-02-19T09:25:35;94457.56;;;16.15;40.50
1472;BME280;963;42.644;23.336;2023-02-19T09:28:00;94453.69;;;16.34;39.92
1472;BME280;963;42.644;23.336;2023-02-19T09:30:26;94462.09;;;16.18;39.69
1472;BME280;963;42.644;23.336;2023-02-19T09:32:51;94432.53;;;16.20;40.05
1472;BME280;963;42.644;23.336;2023-02-19T09:35:16;94464.31;;;16.41;39.80
1472;BME280;963;42.644;23.336;2023-02-19T09:37:42;94466.91;;;16.55;39.53
1472;BME280;963;42.644;23.336;2023-02-19T09:40:08;94464.28;;;16.48;39.30
1472;BME280;963;42.644;23.336;2023-02-19T09:42:34;94470.28;;;16.60;38.66
1472;BME280;963;42.644;23.336;2023-02-19T09:45:00;94458.91;;;16.59;38.65
1472;BME280;963;42.644;23.336;2023-02-19T09:47:28;94440.66;;;16.79;38.29
1472;BME280;963;42.644;23.336;2023-02-19T09:50:16;94460.28;;;16.92;37.81
1472;BME280;963;42.644;23.336;2023-02-19T09:55:22;94438.09;;;17.20;37.54
1472;BME280;963;42.644;23.336;2023-02-19T09:57:50;94431.16;;;17.33;37.15
1472;BME280;963;42.644;23.336;2023-02-19T10:00:21;94426.00;;;17.60;37.51
1472;BME280;963;42.644;23.336;2023-02-19T10:02:51;94422.00;;;17.38;37.13
1472;BME280;963;42.644;23.336;2023-02-19T10:05:17;94409.44;;;17.83;36.61
1472;BME280;963;42.644;23.336;2023-02-19T10:07:45;94413.13;;;17.96;36.44
1472;BME280;963;42.644;23.336;2023-02-19T10:12:44;94404.16;;;18.17;36.04
1472;BME280;963;42.644;23.336;2023-02-19T10:15:16;94389.44;;;18.39;35.61
1472;BME280;963;42.644;23.336;2023-02-19T10:17:43;94401.75;;;18.57;35.34
1472;BME280;963;42.644;23.336;2023-02-19T10:20:14;94385.00;;;18.87;35.08
1472;BME280;963;42.644;23.336;2023-02-19T10:22:40;94388.44;;;18.87;34.76
1472;BME280;963;42.644;23.336;2023-02-19T10:25:06;94370.19;;;18.86;34.61
1472;BME280;963;42.644;23.336;2023-02-19T10:27:36;94370.13;;;18.89;34.57
1472;BME280;963;42.644;23.336;2023-02-19T10:30:02;94374.84;;;19.05;34.44
1472;BME280;963;42.644;23.336;2023-02-19T10:32:29;94396.31;;;19.21;34.40
1472;BME280;963;42.644;23.336;2023-02-19T10:35:14;94358.56;;;19.23;34.16
1472;BME280;963;42.644;23.336;2023-02-19T10:37:42;94351.94;;;19.31;33.90
1472;BME280;963;42.644;23.336;2023-02-19T10:40:17;94358.56;;;19.46;33.93
1472;BME280;963;42.644;23.336;2023-02-19T10:43:02;94350.53;;;19.70;33.98
1472;BME280;963;42.644;23.336;2023-02-19T10:45:44;94359.00;;;18.94;34.61
1472;BME280;963;42.644;23.336;2023-02-19T10:48:22;94341.03;;;19.68;33.73
1472;BME280;963;42.644;23.336;2023-02-19T10:50:51;94335.28;;;19.90;33.63
1472;BME280;963;42.644;23.336;2023-02-19T10:53:22;94321.03;;;20.16;33.03
1472;BME280;963;42.644;23.336;2023-02-19T10:56:05;94337.78;;;20.37;32.98
1472;BME280;963;42.644;23.336;2023-02-19T10:58:31;94323.00;;;20.32;32.74
1472;BME280;963;42.644;23.336;2023-02-19T11:03:41;94303.38;;;20.39;32.50
1472;BME280;963;42.644;23.336;2023-02-19T11:06:08;94307.19;;;20.21;33.22
1472;BME280;963;42.644;23.336;2023-02-19T11:08:56;94298.28;;;20.64;32.70
1472;BME280;963;42.644;23.336;2023-02-19T11:11:27;94295.59;;;20.80;32.33
1472;BME280;963;42.644;23.336;2023-02-19T11:13:55;94278.41;;;20.98;31.94
1472;BME280;963;42.644;23.336;2023-02-19T11:16:23;94274.72;;;20.91;32.04
1472;BME280;963;42.644;23.336;2023-02-19T11:19:00;94284.06;;;21.00;31.73
1472;BME280;963;42.644;23.336;2023-02-19T11:21:29;94278.56;;;21.23;31.57
1472;BME280;963;42.644;23.336;2023-02-19T11:23:59;94265.47;;;21.41;31.21
1472;BME280;963;42.644;23.336;2023-02-19T11:26:31;94247.88;;;21.57;31.00
1472;BME280;963;42.644;23.336;2023-02-19T11:29:01;94247.34;;;21.62;30.75
1472;BME280;963;42.644;23.336;2023-02-19T11:31:35;94247.06;;;21.85;30.50
1472;BME280;963;42.644;23.336;2023-02-19T11:34:03;94243.41;;;21.79;31.02
1472;BME280;963;42.644;23.336;2023-02-19T11:37:13;94237.72;;;22.31;29.64
1472;BME280;963;42.644;23.336;2023-02-19T11:39:44;94227.41;;;22.30;29.84
1472;BME280;963;42.644;23.336;2023-02-19T11:53:19;94231.03;;;22.61;29.44
1472;BME280;963;42.644;23.336;2023-02-19T11:56:09;94213.91;;;22.46;29.54
1472;BME280;963;42.644;23.336;2023-02-19T12:07:28;94203.13;;;21.12;30.98
1472;BME280;963;42.644;23.336;2023-02-19T12:10:24;94203.50;;;20.98;31.05
1472;BME280;963;42.644;23.336;2023-02-19T12:13:23;94204.13;;;20.73;31.53
1472;BME280;963;42.644;23.336;2023-02-19T12:21:12;94177.88;;;22.22;29.94
1472;BME280;963;42.644;23.336;2023-02-19T12:29:34;94168.81;;;23.14;28.54
1472;BME280;963;42.644;23.336;2023-02-19T12:32:16;94162.53;;;22.95;29.37
1472;BME280;963;42.644;23.336;2023-02-19T12:35:06;94158.94;;;22.63;28.80
1472;BME280;963;42.644;23.336;2023-02-19T12:40:22;94149.66;;;22.90;28.92
1472;BME280;963;42.644;23.336;2023-02-19T12:43:12;94140.50;;;23.65;28.35
1472;BME280;963;42.644;23.336;2023-02-19T12:45:59;94133.56;;;24.17;27.89
1472;BME280;963;42.644;23.336;2023-02-19T12:54:20;94113.50;;;25.13;26.43
1472;BME280;963;42.644;23.336;2023-02-19T12:57:19;94110.19;;;25.18;26.25
1472;BME280;963;42.644;23.336;2023-02-19T12:59:54;94091.03;;;25.25;26.26
1472;BME280;963;42.644;23.336;2023-02-19T13:02:33;94104.03;;;25.88;25.86
1472;BME280;963;42.644;23.336;2023-02-19T13:07:58;94084.03;;;26.36;24.99
1472;BME280;963;42.644;23.336;2023-02-19T13:13:19;94077.59;;;26.10;25.49
1472;BME280;963;42.644;23.336;2023-02-19T13:15:51;94078.66;;;26.27;25.02
1472;BME280;963;42.644;23.336;2023-02-19T13:18:23;94087.47;;;26.61;24.70
1472;BME280;963;42.644;23.336;2023-02-19T13:20:51;94072.88;;;26.67;24.81
1472;BME280;963;42.644;23.336;2023-02-19T13:23:22;94071.47;;;25.76;25.61
1472;BME280;963;42.644;23.336;2023-02-19T13:36:25;94050.47;;;25.80;25.09
1472;BME280;963;42.644;23.336;2023-02-19T13:38:52;94051.72;;;25.61;25.45
1472;BME280;963;42.644;23.336;2023-02-19T13:41:35;94039.78;;;26.19;24.84
1472;BME280;963;42.644;23.336;2023-02-19T13:44:15;94041.00;;;26.95;24.22
1472;BME280;963;42.644;23.336;2023-02-19T13:46:43;94042.13;;;27.33;24.09
1472;BME280;963;42.644;23.336;2023-02-19T13:52:31;94032.28;;;26.62;24.54
1472;BME280;963;42.644;23.336;2023-02-19T13:54:48;94036.47;;;25.67;25.14
1472;BME280;963;42.644;23.336;2023-02-19T14:03:38;94038.38;;;23.96;27.04
1472;BME280;963;42.644;23.336;2023-02-19T14:06:08;94038.00;;;23.36;27.76
1472;BME280;963;42.644;23.336;2023-02-19T14:08:48;94026.25;;;23.12;27.65
1472;BME280;963;42.644;23.336;2023-02-19T14:11:14;94028.56;;;23.31;27.32
1472;BME280;963;42.644;23.336;2023-02-19T14:18:52;94018.72;;;25.00;25.87
1472;BME280;963;42.644;23.336;2023-02-19T14:21:42;94018.09;;;24.87;25.88
1472;BME280;963;42.644;23.336;2023-02-19T14:24:13;94006.00;;;24.91;25.82
1472;BME280;963;42.644;23.336;2023-02-19T14:26:39;94004.56;;;26.76;24.06
1472;BME280;963;42.644;23.336;2023-02-19T14:29:07;93993.44;;;29.05;22.58
1472;BME280;963;42.644;23.336;2023-02-19T14:31:36;93992.72;;;31.64;21.30
1472;BME280;963;42.644;23.336;2023-02-19T14:34:04;93976.53;;;33.70;19.59
1472;BME280;963;42.644;23.336;2023-02-19T14:39:09;93992.31;;;34.51;19.13
1472;BME280;963;42.644;23.336;2023-02-19T14:41:38;93982.88;;;32.42;20.44
1472;BME280;963;42.644;23.336;2023-02-19T14:44:13;93986.31;;;31.39;20.74
1472;BME280;963;42.644;23.336;2023-02-19T14:46:57;93997.94;;;29.13;22.00
1472;BME280;963;42.644;23.336;2023-02-19T14:49:29;93990.78;;;27.83;23.32
1472;BME280;963;42.644;23.336;2023-02-19T14:52:05;93998.41;;;26.61;24.52
1472;BME280;963;42.644;23.336;2023-02-19T14:54:46;94021.03;;;28.37;23.33
1472;BME280;963;42.644;23.336;2023-02-19T14:57:19;94006.97;;;26.59;24.60
1472;BME280;963;42.644;23.336;2023-02-19T15:00:02;93987.69;;;26.13;24.76
1472;BME280;963;42.644;23.336;2023-02-19T15:02:30;93966.69;;;26.41;24.43
1472;BME280;963;42.644;23.336;2023-02-19T15:04:56;93984.22;;;25.32;25.80
1472;BME280;963;42.644;23.336;2023-02-19T15:07:29;93983.19;;;24.59;26.47
1472;BME280;963;42.644;23.336;2023-02-19T15:09:58;93976.28;;;23.85;27.01
1472;BME280;963;42.644;23.336;2023-02-19T15:12:33;93977.22;;;23.51;27.80
1472;BME280;963;42.644;23.336;2023-02-19T15:15:02;93973.03;;;23.10;28.08
1472;BME280;963;42.644;23.336;2023-02-19T15:17:31;93978.84;;;22.65;28.54
1472;BME280;963;42.644;23.336;2023-02-19T15:20:02;93972.88;;;22.39;29.26
1472;BME280;963;42.644;23.336;2023-02-19T15:22:30;93971.31;;;21.94;29.66
1472;BME280;963;42.644;23.336;2023-02-19T15:25:00;93967.41;;;21.73;29.68
1472;BME280;963;42.644;23.336;2023-02-19T15:27:26;93977.19;;;21.42;30.58
1472;BME280;963;42.644;23.336;2023-02-19T15:29:52;93974.41;;;21.20;30.49
1472;BME280;963;42.644;23.336;2023-02-19T15:32:23;93954.81;;;20.98;31.04
1472;BME280;963;42.644;23.336;2023-02-19T15:35:01;93965.91;;;20.96;31.07
1472;BME280;963;42.644;23.336;2023-02-19T15:37:30;93962.75;;;20.59;31.27